To NAV CANADA Home Page Login to a new session Search on AWWS site Feedback and Comments Disclaimer Vers la page française équivalente Tips FAQ What's new on the site To the Forecasts and Observations / NOTAM section To "File a Flight Plan" website Publications and other links Update of the User's profile FIC Telephone Numbers My Weather Data Folder Route Weather Data Regional Weather Data Local Weather Data To the Forecasts and Observations / NOTAM section
Request Generated 12/04/2016 at 22:19:54 UTC . Weather information available at that time is displayed.

METAR/TAF

HAY RIVER/MERLYN CARTER AIRPORT/NT    

METAR CYHY 042200Z 31027G34KT 3/8SM SN DRSN VV010 M16/M18 A3006 RMK
SN8 SLP198=
SPECI CYHY 042134Z 31024G35KT 3/8SM SN DRSN VV009 M15/M18 A3005 RMK
SN8 SLP196=
METAR CYHY 042100Z 31026G32KT 1/2SM SN DRSN VV009 M15/M18 A3004 RMK
SN8 SLP193=
METAR CYHY 042000Z 31025G32KT 1/2SM SN DRSN VV011 M15/M18 A3002 RMK
SN8 SLP186=

TAF AMD CYHY 042146Z 0421/0506 31025G35KT 1/2SM -SN BLSN VV006 TEMPO
0421/0506 2SM -SN SCT006 OVC012
RMK NXT FCST BY 050000Z=
Your time UTC time
Weather data provided by Environment Canada and NAV CANADA